Time,TemperatureF,DewpointF,PressureIn,WindDirection,WindDirectionDegrees,WindSpeedMPH,WindSpeedGustMPH,Humidity,HourlyPrecipIn,Conditions,Clouds,dailyrainin,SolarRadiationWatts/m^2,SoftwareType,DateUTC
2013-01-09 00:02:00,73.0,62.0,-100.00,West,277,3.0,11.0,68,0.00,,,0.00,0.000000,,2013-01-09 10:02:00,
2013-01-09 00:11:00,73.0,62.0,-100.00,West,277,3.0,11.0,68,0.00,,,0.00,0.000000,,2013-01-09 10:11:00,
2013-01-09 00:22:00,73.0,62.0,-100.00,West,277,3.0,11.0,68,0.00,,,0.00,0.000000,,2013-01-09 10:22:00,
2013-01-09 00:42:00,74.0,62.0,-100.00,ENE,75,4.0,13.0,67,0.00,,,-99.99,0.000000,,2013-01-09 10:42:00,
2013-01-09 00:52:00,74.0,62.0,-100.00,ENE,75,4.0,13.0,67,0.00,,,-99.99,0.000000,,2013-01-09 10:52:00,
2013-01-09 01:02:00,74.0,62.0,-100.00,ENE,75,4.0,13.0,67,0.00,,,-99.99,0.000000,,2013-01-09 11:02:00,
2013-01-09 01:11:00,74.0,62.0,-100.00,ENE,75,4.0,13.0,67,0.00,,,-99.99,0.000000,,2013-01-09 11:11:00,
2013-01-09 01:22:00,74.0,62.0,-100.00,ENE,75,4.0,13.0,67,0.00,,,-99.99,0.000000,,2013-01-09 11:22:00,
2013-01-09 01:42:00,72.0,60.0,-100.00,East,100,4.0,9.0,65,0.00,,,0.00,0.000000,,2013-01-09 11:42:00,
2013-01-09 01:53:00,72.0,60.0,-100.00,East,100,4.0,9.0,65,0.00,,,0.00,0.000000,,2013-01-09 11:53:00,
2013-01-09 02:03:00,72.0,60.0,-100.00,East,100,4.0,9.0,65,0.00,,,0.00,0.000000,,2013-01-09 12:03:00,
2013-01-09 02:12:00,72.0,60.0,-100.00,East,100,4.0,9.0,65,0.00,,,0.00,0.000000,,2013-01-09 12:12:00,
2013-01-09 02:22:00,72.0,60.0,-100.00,East,100,4.0,9.0,65,0.00,,,0.00,0.000000,,2013-01-09 12:22:00,
2013-01-09 02:43:00,73.0,58.0,-100.00,ENE,65,5.0,15.0,59,0.00,,,0.00,0.000000,,2013-01-09 12:43:00,
2013-01-09 02:53:00,73.0,58.0,-100.00,ENE,65,5.0,15.0,59,0.00,,,0.00,0.000000,,2013-01-09 12:53:00,
2013-01-09 03:02:00,73.0,58.0,-100.00,ENE,65,5.0,15.0,59,0.00,,,0.00,0.000000,,2013-01-09 13:02:00,
2013-01-09 03:12:00,73.0,58.0,-100.00,ENE,65,5.0,15.0,59,0.00,,,0.00,0.000000,,2013-01-09 13:12:00,
2013-01-09 03:22:00,73.0,58.0,-100.00,ENE,65,5.0,15.0,59,0.00,,,0.00,0.000000,,2013-01-09 13:22:00,
2013-01-09 03:43:00,73.0,61.0,-100.00,East,81,6.0,19.0,65,0.00,,,0.00,0.000000,,2013-01-09 13:43:00,
2013-01-09 03:53:00,73.0,61.0,-100.00,East,81,6.0,19.0,65,0.00,,,0.00,0.000000,,2013-01-09 13:53:00,
2013-01-09 04:02:00,73.0,61.0,-100.00,East,81,6.0,19.0,65,0.00,,,0.00,0.000000,,2013-01-09 14:02:00,
2013-01-09 04:12:00,73.0,61.0,-100.00,East,81,6.0,19.0,65,0.00,,,0.00,0.000000,,2013-01-09 14:12:00,
2013-01-09 04:22:00,73.0,61.0,-100.00,East,81,6.0,19.0,65,0.00,,,0.00,0.000000,,2013-01-09 14:22:00,
2013-01-09 04:43:00,72.0,58.0,-100.00,SE,131,7.0,14.0,61,0.00,,,0.00,0.000000,,2013-01-09 14:43:00,
2013-01-09 04:53:00,72.0,58.0,-100.00,SE,131,7.0,14.0,61,0.00,,,0.00,0.000000,,2013-01-09 14:53:00,
2013-01-09 05:03:00,72.0,58.0,-100.00,SE,131,7.0,14.0,61,0.00,,,0.00,0.000000,,2013-01-09 15:03:00,
2013-01-09 05:12:00,72.0,58.0,-100.00,SE,131,7.0,14.0,61,0.00,,,0.00,0.000000,,2013-01-09 15:12:00,
2013-01-09 05:22:00,72.0,58.0,-100.00,SE,131,7.0,14.0,61,0.00,,,0.00,0.000000,,2013-01-09 15:22:00,
2013-01-09 05:43:00,73.0,56.0,-100.00,ESE,116,8.0,14.0,55,0.00,,,0.00,0.000000,,2013-01-09 15:43:00,
2013-01-09 05:53:00,73.0,56.0,-100.00,ESE,116,8.0,14.0,55,0.00,,,0.00,0.000000,,2013-01-09 15:53:00,
2013-01-09 06:03:00,73.0,56.0,-100.00,ESE,116,8.0,14.0,55,0.00,,,0.00,0.000000,,2013-01-09 16:03:00,
2013-01-09 06:12:00,73.0,56.0,-100.00,ESE,116,8.0,14.0,55,0.00,,,0.00,0.000000,,2013-01-09 16:12:00,
2013-01-09 06:22:00,73.0,56.0,-100.00,ESE,116,8.0,14.0,55,0.00,,,0.00,0.000000,,2013-01-09 16:22:00,
2013-01-09 06:43:00,73.0,59.0,-100.00,SE,127,6.0,14.0,62,0.00,,,0.00,0.000000,,2013-01-09 16:43:00,
2013-01-09 06:53:00,73.0,59.0,-100.00,SE,127,6.0,14.0,62,0.00,,,0.00,0.000000,,2013-01-09 16:53:00,
2013-01-09 07:02:00,73.0,59.0,-100.00,SE,127,6.0,14.0,62,0.00,,,0.00,0.000000,,2013-01-09 17:02:00,
2013-01-09 07:12:00,73.0,59.0,-100.00,SE,127,6.0,14.0,62,0.00,,,0.00,0.000000,,2013-01-09 17:12:00,
2013-01-09 07:22:00,73.0,59.0,-100.00,SE,127,6.0,14.0,62,0.00,,,0.00,0.000000,,2013-01-09 17:22:00,
2013-01-09 07:43:00,71.0,60.0,-100.00,ENE,74,3.0,7.0,68,0.00,,,0.00,0.000000,,2013-01-09 17:43:00,
2013-01-09 07:53:00,71.0,60.0,-100.00,ENE,74,3.0,7.0,68,0.00,,,0.00,0.000000,,2013-01-09 17:53:00,
2013-01-09 08:03:00,71.0,60.0,-100.00,ENE,74,3.0,7.0,68,0.00,,,0.00,0.000000,,2013-01-09 18:03:00,
2013-01-09 08:12:00,71.0,60.0,-100.00,ENE,74,3.0,7.0,68,0.00,,,0.00,0.000000,,2013-01-09 18:12:00,
2013-01-09 08:23:00,71.0,60.0,-100.00,ENE,74,3.0,7.0,68,0.00,,,0.00,0.000000,,2013-01-09 18:23:00,
2013-01-09 08:43:00,72.0,58.0,-100.00,NE,51,3.0,8.0,61,0.00,,,0.00,74.000000,,2013-01-09 18:43:00,
2013-01-09 08:53:00,72.0,58.0,-100.00,NE,51,3.0,8.0,61,0.00,,,0.00,74.000000,,2013-01-09 18:53:00,
2013-01-09 09:02:00,72.0,58.0,-100.00,NE,51,3.0,8.0,61,0.00,,,0.00,74.000000,,2013-01-09 19:02:00,
2013-01-09 09:12:00,72.0,58.0,-100.00,NE,51,3.0,8.0,61,0.00,,,0.00,74.000000,,2013-01-09 19:12:00,
2013-01-09 09:22:00,72.0,58.0,-100.00,NE,51,3.0,8.0,61,0.00,,,0.00,74.000000,,2013-01-09 19:22:00,
2013-01-09 09:53:00,75.0,56.0,-100.00,North,349,4.0,9.0,52,0.00,,,0.00,303.000000,,2013-01-09 19:53:00,
2013-01-09 10:02:00,75.0,56.0,-100.00,North,349,4.0,9.0,52,0.00,,,0.00,303.000000,,2013-01-09 20:02:00,
2013-01-09 10:12:00,75.0,56.0,-100.00,North,349,4.0,9.0,52,0.00,,,0.00,303.000000,,2013-01-09 20:12:00,
2013-01-09 10:22:00,75.0,56.0,-100.00,North,349,4.0,9.0,52,0.00,,,0.00,303.000000,,2013-01-09 20:22:00,
2013-01-09 10:43:00,77.0,57.0,-100.00,NW,307,4.0,10.0,51,0.00,,,0.00,499.000000,,2013-01-09 20:43:00,
2013-01-09 10:53:00,77.0,57.0,-100.00,NW,307,4.0,10.0,51,0.00,,,0.00,499.000000,,2013-01-09 20:53:00,
2013-01-09 11:03:00,77.0,57.0,-100.00,NW,307,4.0,10.0,51,0.00,,,0.00,499.000000,,2013-01-09 21:03:00,
2013-01-09 11:12:00,77.0,57.0,-100.00,NW,307,4.0,10.0,51,0.00,,,0.00,499.000000,,2013-01-09 21:12:00,
2013-01-09 11:22:00,77.0,57.0,-100.00,NW,307,4.0,10.0,51,0.00,,,0.00,499.000000,,2013-01-09 21:22:00,
2013-01-09 11:43:00,77.0,60.0,-100.00,WNW,285,5.0,17.0,56,0.00,,,0.00,617.000000,,2013-01-09 21:43:00,
2013-01-09 11:53:00,77.0,60.0,-100.00,WNW,285,5.0,17.0,56,0.00,,,0.00,617.000000,,2013-01-09 21:53:00,
2013-01-09 12:03:00,77.0,60.0,-100.00,WNW,285,5.0,17.0,56,0.00,,,0.00,617.000000,,2013-01-09 22:03:00,
2013-01-09 12:12:00,77.0,60.0,-100.00,WNW,285,5.0,17.0,56,0.00,,,0.00,617.000000,,2013-01-09 22:12:00,
2013-01-09 12:22:00,77.0,60.0,-100.00,WNW,285,5.0,17.0,56,0.00,,,0.00,617.000000,,2013-01-09 22:22:00,
2013-01-09 12:43:00,77.0,63.0,-100.00,WSW,246,5.0,14.0,61,0.00,,,0.00,737.000000,,2013-01-09 22:43:00,
2013-01-09 12:52:00,77.0,63.0,-100.00,WSW,246,5.0,14.0,61,0.00,,,0.00,737.000000,,2013-01-09 22:52:00,
2013-01-09 13:02:00,77.0,63.0,-100.00,WSW,246,5.0,14.0,61,0.00,,,0.00,737.000000,,2013-01-09 23:02:00,
2013-01-09 13:12:00,77.0,63.0,-100.00,WSW,246,5.0,14.0,61,0.00,,,0.00,737.000000,,2013-01-09 23:12:00,
2013-01-09 13:22:00,77.0,63.0,-100.00,WSW,246,5.0,14.0,61,0.00,,,0.00,737.000000,,2013-01-09 23:22:00,
2013-01-09 13:43:00,78.0,63.0,-100.00,West,271,7.0,12.0,61,0.00,,,0.00,761.000000,,2013-01-09 23:43:00,
2013-01-09 13:53:00,78.0,63.0,-100.00,West,271,7.0,12.0,61,0.00,,,0.00,761.000000,,2013-01-09 23:53:00,
2013-01-09 14:02:00,78.0,63.0,-100.00,West,271,7.0,12.0,61,0.00,,,0.00,761.000000,,2013-01-10 00:02:00,
2013-01-09 14:12:00,78.0,63.0,-100.00,West,271,7.0,12.0,61,0.00,,,0.00,761.000000,,2013-01-10 00:12:00,
2013-01-09 14:22:00,78.0,63.0,-100.00,West,271,7.0,12.0,61,0.00,,,0.00,761.000000,,2013-01-10 00:22:00,
2013-01-09 14:43:00,78.0,62.0,-100.00,West,275,6.0,10.0,57,0.00,,,0.00,728.000000,,2013-01-10 00:43:00,
2013-01-09 14:53:00,78.0,62.0,-100.00,West,275,6.0,10.0,57,0.00,,,0.00,728.000000,,2013-01-10 00:53:00,
2013-01-09 15:02:00,78.0,62.0,-100.00,West,275,6.0,10.0,57,0.00,,,0.00,728.000000,,2013-01-10 01:02:00,
2013-01-09 15:12:00,78.0,62.0,-100.00,West,275,6.0,10.0,57,0.00,,,0.00,728.000000,,2013-01-10 01:12:00,
2013-01-09 15:22:00,78.0,62.0,-100.00,West,275,6.0,10.0,57,0.00,,,0.00,728.000000,,2013-01-10 01:22:00,
2013-01-09 15:43:00,78.0,63.0,-100.00,WSW,253,5.0,10.0,60,0.00,,,0.00,585.000000,,2013-01-10 01:43:00,
2013-01-09 15:53:00,78.0,63.0,-100.00,WSW,253,5.0,10.0,60,0.00,,,0.00,585.000000,,2013-01-10 01:53:00,
2013-01-09 16:02:00,78.0,63.0,-100.00,WSW,253,5.0,10.0,60,0.00,,,0.00,585.000000,,2013-01-10 02:02:00,
2013-01-09 16:12:00,78.0,63.0,-100.00,WSW,253,5.0,10.0,60,0.00,,,0.00,585.000000,,2013-01-10 02:12:00,
2013-01-09 16:22:00,78.0,63.0,-100.00,WSW,253,5.0,10.0,60,0.00,,,0.00,585.000000,,2013-01-10 02:22:00,
2013-01-09 17:02:00,77.0,59.0,-100.00,West,260,6.0,11.0,54,0.00,,,0.00,304.000000,,2013-01-10 03:02:00,
2013-01-09 17:11:00,77.0,59.0,-100.00,West,260,6.0,11.0,54,0.00,,,0.00,304.000000,,2013-01-10 03:11:00,
2013-01-09 17:22:00,77.0,59.0,-100.00,West,260,6.0,11.0,54,0.00,,,0.00,304.000000,,2013-01-10 03:22:00,
2013-01-09 17:43:00,78.0,62.0,-100.00,WNW,286,5.0,10.0,58,0.00,,,0.00,187.000000,,2013-01-10 03:43:00,
2013-01-09 17:52:00,78.0,62.0,-100.00,WNW,286,5.0,10.0,58,0.00,,,0.00,187.000000,,2013-01-10 03:52:00,
2013-01-09 18:02:00,78.0,62.0,-100.00,WNW,286,5.0,10.0,58,0.00,,,0.00,187.000000,,2013-01-10 04:02:00,
2013-01-09 18:12:00,78.0,62.0,-100.00,WNW,286,5.0,10.0,58,0.00,,,0.00,187.000000,,2013-01-10 04:12:00,
2013-01-09 18:22:00,78.0,62.0,-100.00,WNW,286,5.0,10.0,58,0.00,,,0.00,187.000000,,2013-01-10 04:22:00,
2013-01-09 18:43:00,78.0,61.0,-100.00,ENE,57,8.0,21.0,56,0.00,,,0.00,57.000000,,2013-01-10 04:43:00,
2013-01-09 18:52:00,78.0,61.0,-100.00,ENE,57,8.0,21.0,56,0.00,,,0.00,57.000000,,2013-01-10 04:52:00,
2013-01-09 19:03:00,78.0,61.0,-100.00,ENE,57,8.0,21.0,56,0.00,,,0.00,57.000000,,2013-01-10 05:03:00,
2013-01-09 19:12:00,78.0,61.0,-100.00,ENE,57,8.0,21.0,56,0.00,,,0.00,57.000000,,2013-01-10 05:12:00,
2013-01-09 19:22:00,78.0,61.0,-100.00,ENE,57,8.0,21.0,56,0.00,,,0.00,57.000000,,2013-01-10 05:22:00,
2013-01-09 19:43:00,76.0,60.0,-100.00,ENE,72,8.0,25.0,57,0.00,,,0.00,0.000000,,2013-01-10 05:43:00,
2013-01-09 19:53:00,76.0,60.0,-100.00,ENE,72,8.0,25.0,57,0.00,,,0.00,0.000000,,2013-01-10 05:53:00,
2013-01-09 20:02:00,76.0,60.0,-100.00,ENE,72,8.0,25.0,57,0.00,,,0.00,0.000000,,2013-01-10 06:02:00,
2013-01-09 20:11:00,76.0,60.0,-100.00,ENE,72,8.0,25.0,57,0.00,,,0.00,0.000000,,2013-01-10 06:11:00,
2013-01-09 20:22:00,76.0,60.0,-100.00,ENE,72,8.0,25.0,57,0.00,,,0.00,0.000000,,2013-01-10 06:22:00,
2013-01-09 20:42:00,76.0,60.0,-100.00,ENE,77,7.0,23.0,58,0.00,,,0.00,0.000000,,2013-01-10 06:42:00,
2013-01-09 20:52:00,76.0,60.0,-100.00,ENE,77,7.0,23.0,58,0.00,,,0.00,0.000000,,2013-01-10 06:52:00,
2013-01-09 21:02:00,76.0,60.0,-100.00,ENE,77,7.0,23.0,58,0.00,,,0.00,0.000000,,2013-01-10 07:02:00,
2013-01-09 21:11:00,76.0,60.0,-100.00,ENE,77,7.0,23.0,58,0.00,,,0.00,0.000000,,2013-01-10 07:11:00,
2013-01-09 21:22:00,76.0,60.0,-100.00,ENE,77,7.0,23.0,58,0.00,,,0.00,0.000000,,2013-01-10 07:22:00,
2013-01-09 22:42:00,73.0,57.0,-100.00,ESE,103,19.0,32.0,58,-99.99,,,0.00,0.000000,,2013-01-10 08:42:00,
2013-01-09 22:53:00,73.0,57.0,-100.00,ESE,103,19.0,32.0,58,-99.99,,,0.00,0.000000,,2013-01-10 08:53:00,
2013-01-09 23:02:00,73.0,57.0,-100.00,ESE,103,19.0,32.0,58,-99.99,,,0.00,0.000000,,2013-01-10 09:02:00,
2013-01-09 23:12:00,73.0,57.0,-100.00,ESE,103,19.0,32.0,58,-99.99,,,0.00,0.000000,,2013-01-10 09:12:00,
2013-01-09 23:22:00,73.0,57.0,-100.00,ESE,103,19.0,32.0,58,-99.99,,,0.00,0.000000,,2013-01-10 09:22:00,
2013-01-09 23:43:00,73.0,57.0,-100.00,ESE,121,19.0,36.0,58,0.00,,,0.00,0.000000,,2013-01-10 09:43:00,
2013-01-09 23:52:00,73.0,57.0,-100.00,ESE,121,19.0,36.0,58,0.00,,,0.00,0.000000,,2013-01-10 09:52:00,